createdAt,value
2018-09-13T00:00:12.531Z,1.07
2018-09-13T00:02:41.241Z,1.77
2018-09-13T00:05:09.973Z,1.37
2018-09-13T00:07:38.743Z,1.30
2018-09-13T00:10:07.507Z,1.40
2018-09-13T00:12:36.170Z,1.20
2018-09-13T00:15:05.409Z,1.40
2018-09-13T00:17:34.139Z,1.50
2018-09-13T00:20:02.880Z,1.27
2018-09-13T00:22:31.551Z,1.17
2018-09-13T00:25:00.202Z,1.50
2018-09-13T00:27:28.958Z,1.60
2018-09-13T00:29:57.625Z,1.00
2018-09-13T00:32:26.300Z,1.33
2018-09-13T00:34:55.122Z,1.17
2018-09-13T00:37:23.804Z,1.27
2018-09-13T00:39:52.493Z,1.40
2018-09-13T00:42:21.191Z,1.17
2018-09-13T00:44:49.947Z,1.30
2018-09-13T00:47:18.617Z,1.50
2018-09-13T00:49:47.303Z,1.53
2018-09-13T00:52:15.988Z,1.10
2018-09-13T00:54:44.709Z,1.53
2018-09-13T00:57:13.392Z,1.13
2018-09-13T00:59:42.065Z,1.27
2018-09-13T01:02:10.736Z,1.30
2018-09-13T01:04:39.415Z,1.53
2018-09-13T01:07:08.134Z,1.40
2018-09-13T01:09:36.863Z,1.23
2018-09-13T01:12:05.597Z,1.37
2018-09-13T01:14:34.263Z,1.47
2018-09-13T01:17:02.953Z,1.13
2018-09-13T01:19:31.653Z,1.83
2018-09-13T01:22:00.295Z,1.30
2018-09-13T01:24:29.052Z,1.03
2018-09-13T01:26:57.729Z,1.37
2018-09-13T01:29:26.511Z,1.37
2018-09-13T01:31:55.221Z,1.87
2018-09-13T01:34:23.893Z,1.07
2018-09-13T01:36:52.896Z,1.10
2018-09-13T01:39:21.593Z,1.30
2018-09-13T01:41:50.311Z,1.30
2018-09-13T01:44:19.013Z,1.30
2018-09-13T01:46:47.698Z,1.50
2018-09-13T01:49:16.404Z,1.37
2018-09-13T01:51:45.121Z,1.50
2018-09-13T01:54:13.784Z,1.60
2018-09-13T01:56:42.440Z,1.50
2018-09-13T01:59:11.159Z,1.27
2018-09-13T02:01:39.833Z,1.93
2018-09-13T02:04:08.524Z,1.33
2018-09-13T02:06:37.199Z,1.30
2018-09-13T02:09:08.708Z,1.30
2018-09-13T02:11:37.376Z,1.57
2018-09-13T02:14:06.123Z,1.50
2018-09-13T02:16:34.873Z,1.40
2018-09-13T02:19:03.620Z,1.20
2018-09-13T02:21:32.318Z,1.40
2018-09-13T02:24:00.987Z,1.83
2018-09-13T02:26:29.633Z,1.53
2018-09-13T02:28:58.348Z,1.30
2018-09-13T02:31:27.152Z,1.50
2018-09-13T02:33:55.857Z,1.60
2018-09-13T02:36:24.528Z,1.50
2018-09-13T02:38:53.273Z,1.20
2018-09-13T02:41:21.939Z,1.33
2018-09-13T02:43:50.786Z,1.23
2018-09-13T02:46:19.455Z,1.70
2018-09-13T02:48:48.177Z,1.60
2018-09-13T02:51:16.965Z,1.43
2018-09-13T02:53:45.687Z,1.20
2018-09-13T02:56:14.341Z,1.40
2018-09-13T02:58:43.067Z,1.43
2018-09-13T03:01:11.771Z,1.30
2018-09-13T03:03:40.415Z,1.23
2018-09-13T03:06:09.184Z,1.27
2018-09-13T03:08:37.873Z,1.27
2018-09-13T03:11:06.572Z,1.13
2018-09-13T03:13:35.259Z,1.10
2018-09-13T03:16:03.928Z,1.80
2018-09-13T03:18:32.613Z,1.20
2018-09-13T03:21:01.301Z,1.27
2018-09-13T03:23:30.070Z,1.20
2018-09-13T03:25:58.736Z,1.33
2018-09-13T03:28:27.489Z,1.20
2018-09-13T03:30:56.188Z,1.40
2018-09-13T03:33:24.939Z,1.40
2018-09-13T03:35:53.622Z,1.60
2018-09-13T03:38:22.312Z,1.40
2018-09-13T03:40:50.996Z,1.27
2018-09-13T03:43:19.699Z,1.40
2018-09-13T03:45:48.504Z,1.23
2018-09-13T03:48:17.190Z,1.40
2018-09-13T03:50:45.844Z,1.43
2018-09-13T03:53:14.557Z,1.30
2018-09-13T03:55:43.227Z,1.63
2018-09-13T03:58:11.919Z,1.73
2018-09-13T04:00:40.622Z,1.50
2018-09-13T04:03:09.319Z,1.40
2018-09-13T04:05:38.073Z,1.27
2018-09-13T04:08:06.794Z,1.33
2018-09-13T04:10:35.523Z,1.30
2018-09-13T04:13:04.302Z,1.70
2018-09-13T04:15:32.972Z,1.43
2018-09-13T04:18:01.688Z,1.60
2018-09-13T04:20:30.331Z,1.50
2018-09-13T04:22:59.044Z,1.30
2018-09-13T04:25:27.832Z,1.37
2018-09-13T04:27:56.498Z,1.53
2018-09-13T04:30:25.206Z,1.40
2018-09-13T04:32:53.936Z,1.90
2018-09-13T04:35:22.702Z,2.00
2018-09-13T04:37:51.352Z,1.60
2018-09-13T04:40:20.026Z,1.27
2018-09-13T04:42:48.698Z,2.53
2018-09-13T04:45:17.384Z,1.30
2018-09-13T04:47:46.292Z,1.53
2018-09-13T04:50:14.978Z,1.37
2018-09-13T04:52:43.692Z,1.30
2018-09-13T04:55:12.353Z,1.40
2018-09-13T04:57:41.015Z,1.50
2018-09-13T05:00:09.834Z,1.50
2018-09-13T05:02:38.804Z,1.53
2018-09-13T05:05:07.598Z,1.40
2018-09-13T05:07:36.299Z,1.50
2018-09-13T05:10:05.025Z,1.53
2018-09-13T05:12:33.703Z,1.60
2018-09-13T05:15:02.415Z,1.90
2018-09-13T05:17:31.071Z,1.53
2018-09-13T05:19:59.737Z,1.77
2018-09-13T05:22:28.497Z,1.57
2018-09-13T05:24:57.195Z,1.80
2018-09-13T05:27:25.864Z,1.80
2018-09-13T05:29:54.516Z,1.50
2018-09-13T05:32:23.140Z,1.60
2018-09-13T05:34:51.825Z,1.30
2018-09-13T05:37:20.502Z,1.70
2018-09-13T05:39:49.185Z,1.90
2018-09-13T05:42:17.890Z,2.07
2018-09-13T05:44:46.612Z,1.60
2018-09-13T05:47:15.281Z,1.80
2018-09-13T05:49:44.132Z,2.20
2018-09-13T05:52:13.058Z,1.87
2018-09-13T05:54:41.780Z,2.07
2018-09-13T05:57:10.468Z,1.60
2018-09-13T05:59:39.191Z,2.60
2018-09-13T06:02:07.910Z,2.97
2018-09-13T06:04:36.600Z,2.37
2018-09-13T06:07:05.291Z,1.40
2018-09-13T06:09:34.135Z,1.80
2018-09-13T06:12:02.829Z,1.77
2018-09-13T06:14:31.512Z,1.87
2018-09-13T06:17:00.231Z,1.80
2018-09-13T06:19:28.900Z,2.00
2018-09-13T06:21:57.548Z,1.93
2018-09-13T06:24:26.320Z,2.30
2018-09-13T06:26:55.057Z,2.10
2018-09-13T06:29:23.806Z,1.93
2018-09-13T06:31:52.482Z,2.00
2018-09-13T06:34:21.154Z,1.90
2018-09-13T06:36:49.840Z,1.67
2018-09-13T06:39:18.524Z,1.77
2018-09-13T06:41:47.203Z,2.40
2018-09-13T06:44:15.888Z,2.20
2018-09-13T06:46:44.683Z,2.37
2018-09-13T06:49:13.501Z,2.13
2018-09-13T06:51:42.399Z,2.60
2018-09-13T06:54:11.357Z,2.03
2018-09-13T06:56:40.105Z,2.30
2018-09-13T06:59:08.889Z,2.50
2018-09-13T07:01:37.687Z,2.20
2018-09-13T07:04:06.620Z,1.90
2018-09-13T07:06:35.483Z,2.17
2018-09-13T07:09:05.157Z,1.97
2018-09-13T07:11:33.911Z,2.57
2018-09-13T07:14:02.645Z,2.30
2018-09-13T07:16:31.836Z,2.80
2018-09-13T07:19:00.669Z,2.30
2018-09-13T07:21:29.507Z,3.00
2018-09-13T07:23:59.680Z,2.77
2018-09-13T07:26:28.682Z,2.73
2018-09-13T07:28:57.552Z,2.57
2018-09-13T07:31:26.352Z,2.53
2018-09-13T07:33:55.101Z,2.23
2018-09-13T07:36:23.808Z,2.13
2018-09-13T07:38:52.534Z,2.13
2018-09-13T07:41:21.252Z,2.40
2018-09-13T07:43:49.904Z,2.47
2018-09-13T07:46:18.627Z,2.93
2018-09-13T07:48:47.301Z,2.87
2018-09-13T07:51:16.039Z,2.70
2018-09-13T07:53:44.754Z,2.50
2018-09-13T07:56:13.478Z,2.47
2018-09-13T07:58:42.147Z,2.27
2018-09-13T08:01:10.856Z,2.67
2018-09-13T08:03:39.583Z,2.10
2018-09-13T08:06:08.709Z,2.00
2018-09-13T08:08:37.406Z,2.10
2018-09-13T08:11:06.163Z,2.20
2018-09-13T08:13:34.881Z,2.53
2018-09-13T08:16:03.583Z,2.27
2018-09-13T08:18:32.272Z,2.10
2018-09-13T08:21:00.999Z,2.23
2018-09-13T08:23:29.664Z,2.93
2018-09-13T08:25:58.422Z,2.90
2018-09-13T08:28:27.110Z,2.53
2018-09-13T08:30:55.799Z,2.13
2018-09-13T08:33:24.581Z,2.37
2018-09-13T08:35:53.299Z,2.47
2018-09-13T08:38:21.999Z,2.10
2018-09-13T08:40:50.746Z,1.97
2018-09-13T08:43:19.428Z,1.83
2018-09-13T08:45:48.128Z,2.20
2018-09-13T08:48:16.822Z,2.30
2018-09-13T08:50:45.499Z,2.50
2018-09-13T08:53:14.177Z,3.10
2018-09-13T08:55:42.862Z,3.23
2018-09-13T08:58:11.532Z,2.90
2018-09-13T09:00:40.261Z,2.90
2018-09-13T09:03:08.949Z,4.37
2018-09-13T09:05:37.610Z,3.97
2018-09-13T09:08:06.321Z,3.90
2018-09-13T09:10:35.061Z,5.17
2018-09-13T09:13:03.759Z,3.40
2018-09-13T09:15:33.322Z,3.73
2018-09-13T09:18:02.025Z,3.60
2018-09-13T09:20:30.735Z,3.60
2018-09-13T09:22:59.413Z,3.03
2018-09-13T09:25:28.164Z,2.43
2018-09-13T09:27:56.833Z,2.20
2018-09-13T09:30:25.596Z,2.03
2018-09-13T09:32:54.295Z,2.13
2018-09-13T09:35:22.976Z,2.10
2018-09-13T09:37:51.652Z,1.50
2018-09-13T09:40:20.332Z,1.97
2018-09-13T09:42:49.001Z,1.93
2018-09-13T09:45:17.668Z,1.90
2018-09-13T09:47:46.374Z,1.47
2018-09-13T09:50:15.115Z,1.33
2018-09-13T09:52:43.812Z,1.53
2018-09-13T09:55:12.523Z,0.77
2018-09-13T09:57:42.553Z,0.87
2018-09-13T10:00:11.321Z,0.90
2018-09-13T10:02:39.996Z,1.10
2018-09-13T10:05:08.712Z,0.90
2018-09-13T10:07:37.403Z,0.80
2018-09-13T10:10:06.109Z,0.90
2018-09-13T10:12:34.792Z,0.90
2018-09-13T10:15:08.771Z,1.00
2018-09-13T10:17:42.600Z,0.77
2018-09-13T10:20:16.399Z,0.87
2018-09-13T10:22:50.207Z,1.00
2018-09-13T10:25:24.132Z,1.13
2018-09-13T10:27:58.021Z,0.93
2018-09-13T10:30:31.956Z,0.80
2018-09-13T10:33:05.676Z,0.90
2018-09-13T10:35:39.660Z,0.80
2018-09-13T10:38:13.415Z,0.90
2018-09-13T10:40:47.360Z,0.77
2018-09-13T10:43:21.094Z,1.00
2018-09-13T10:45:55.036Z,0.90
2018-09-13T10:48:26.804Z,0.80
2018-09-13T10:51:00.549Z,1.50
2018-09-13T10:53:35.320Z,1.30
2018-09-13T10:56:04.464Z,0.90
2018-09-13T10:58:33.312Z,1.00
2018-09-13T11:01:01.985Z,0.77
2018-09-13T11:03:30.741Z,1.00
2018-09-13T11:05:59.508Z,0.63
2018-09-13T11:08:28.236Z,1.07
2018-09-13T11:10:57.136Z,0.70
2018-09-13T11:14:03.892Z,0.87
2018-09-13T11:16:32.589Z,1.03
2018-09-13T11:19:01.281Z,0.80
2018-09-13T11:21:29.944Z,1.10
2018-09-13T11:23:58.628Z,0.90
2018-09-13T11:26:27.309Z,0.90
2018-09-13T11:28:56.028Z,1.20
2018-09-13T11:31:24.718Z,0.70
2018-09-13T11:33:53.406Z,1.00
2018-09-13T11:36:22.099Z,1.07
2018-09-13T11:38:50.852Z,0.90
2018-09-13T11:41:19.803Z,1.20
2018-09-13T11:43:48.576Z,1.00
2018-09-13T11:46:17.247Z,1.13
2018-09-13T11:48:45.963Z,1.10
2018-09-13T11:51:14.615Z,0.97
2018-09-13T11:53:43.314Z,1.20
2018-09-13T11:56:12.061Z,1.20
2018-09-13T11:58:40.793Z,1.10
2018-09-13T12:01:09.582Z,1.10
2018-09-13T12:03:38.268Z,1.33
2018-09-13T12:06:07.023Z,1.20
2018-09-13T12:08:35.729Z,1.10
2018-09-13T12:11:04.421Z,1.30
2018-09-13T12:13:33.091Z,1.13
2018-09-13T12:16:01.760Z,1.07
2018-09-13T12:18:30.536Z,0.93
2018-09-13T12:20:59.198Z,1.17
2018-09-13T12:23:27.957Z,1.23
2018-09-13T12:25:56.620Z,1.20
2018-09-13T12:28:25.311Z,1.20
2018-09-13T12:30:54.011Z,1.40
2018-09-13T12:33:22.701Z,0.90
2018-09-13T12:35:51.367Z,1.43
2018-09-13T12:38:20.056Z,1.00
2018-09-13T12:40:48.748Z,1.10
2018-09-13T12:43:17.405Z,0.93
2018-09-13T12:45:46.100Z,0.97
2018-09-13T12:48:14.732Z,1.27
2018-09-13T12:50:43.488Z,1.00
2018-09-13T12:53:12.297Z,1.10
2018-09-13T12:55:46.218Z,1.13
2018-09-13T12:58:14.869Z,1.23
2018-09-13T13:00:43.552Z,1.10
2018-09-13T13:03:12.284Z,1.17
2018-09-13T13:05:40.939Z,1.10
2018-09-13T13:08:09.628Z,1.10
2018-09-13T13:10:38.325Z,1.30
2018-09-13T13:13:07.008Z,1.30
2018-09-13T13:15:35.661Z,0.90
2018-09-13T13:18:04.436Z,1.30
2018-09-13T13:20:33.103Z,1.13
2018-09-13T13:23:01.765Z,1.43
2018-09-13T13:25:30.479Z,1.10
2018-09-13T13:27:59.185Z,1.63
2018-09-13T13:30:27.956Z,1.50
2018-09-13T13:32:56.629Z,1.37
2018-09-13T13:35:25.291Z,1.10
2018-09-13T13:37:53.963Z,1.40
2018-09-13T13:40:22.789Z,1.30
2018-09-13T13:42:52.640Z,1.37
2018-09-13T13:45:21.448Z,1.30
2018-09-13T13:47:50.124Z,1.00
2018-09-13T13:50:18.859Z,0.90
2018-09-13T13:52:47.567Z,0.87
2018-09-13T13:55:16.268Z,1.13
2018-09-13T13:57:44.960Z,1.03
2018-09-13T14:00:13.727Z,0.90
2018-09-13T14:02:42.364Z,0.83
2018-09-13T14:05:11.717Z,0.70
2018-09-13T14:07:40.397Z,0.93
2018-09-13T14:10:09.148Z,1.10
2018-09-13T14:12:37.775Z,0.87
2018-09-13T14:15:07.113Z,0.47
2018-09-13T14:17:35.889Z,0.80
2018-09-13T14:20:04.620Z,0.87
2018-09-13T14:22:33.880Z,1.27
2018-09-13T14:25:02.565Z,0.90
2018-09-13T14:27:31.251Z,1.57
2018-09-13T14:29:59.965Z,0.80
2018-09-13T14:32:28.735Z,0.80
2018-09-13T14:34:57.404Z,1.00
2018-09-13T14:37:26.521Z,1.00
2018-09-13T14:39:55.299Z,0.90
2018-09-13T14:42:24.116Z,0.80
2018-09-13T14:44:52.827Z,0.97
2018-09-13T14:47:21.488Z,0.93
2018-09-13T14:49:50.135Z,0.93
2018-09-13T14:52:18.815Z,1.10
2018-09-13T14:54:47.502Z,1.20
2018-09-13T14:57:16.322Z,0.73
2018-09-13T14:59:44.995Z,1.30
2018-09-13T15:02:13.676Z,1.17
2018-09-13T15:04:42.400Z,1.20
2018-09-13T15:07:11.107Z,1.20
2018-09-13T15:09:39.715Z,1.10
2018-09-13T15:12:08.402Z,0.80
2018-09-13T15:14:37.092Z,0.93
2018-09-13T15:17:05.928Z,0.73
2018-09-13T15:19:34.932Z,1.00
2018-09-13T15:22:03.686Z,1.20
2018-09-13T15:24:32.475Z,1.13
2018-09-13T15:27:01.099Z,1.23
2018-09-13T15:29:29.835Z,1.00
2018-09-13T15:31:58.495Z,1.20
2018-09-13T15:34:27.378Z,1.00
2018-09-13T15:36:56.234Z,1.23
2018-09-13T15:39:25.112Z,1.03
2018-09-13T15:41:53.938Z,0.93
2018-09-13T15:44:22.860Z,0.90
2018-09-13T15:46:51.634Z,1.53
2018-09-13T15:49:20.424Z,1.13
2018-09-13T15:51:49.272Z,1.00
2018-09-13T15:54:18.000Z,1.20
2018-09-13T15:56:46.695Z,1.10
2018-09-13T15:59:15.556Z,0.73
2018-09-13T16:01:44.620Z,1.17
2018-09-13T16:04:13.377Z,1.23
2018-09-13T16:06:42.303Z,1.30
2018-09-13T16:09:11.283Z,1.20
2018-09-13T16:11:40.225Z,1.30
2018-09-13T16:14:09.048Z,1.10
2018-09-13T16:16:38.007Z,1.07
2018-09-13T16:19:07.266Z,1.13
2018-09-13T16:21:36.070Z,1.20
2018-09-13T16:24:04.976Z,1.00
2018-09-13T16:26:33.803Z,0.90
2018-09-13T16:29:02.517Z,1.00
2018-09-13T16:31:31.319Z,1.10
2018-09-13T16:34:00.238Z,1.50
2018-09-13T16:36:30.419Z,1.37
2018-09-13T16:39:04.439Z,1.20
2018-09-13T16:41:41.779Z,1.23
2018-09-13T16:44:14.652Z,1.30
2018-09-13T16:46:48.500Z,1.20
2018-09-13T16:49:17.207Z,1.27
2018-09-13T16:51:45.985Z,1.00
2018-09-13T16:54:14.694Z,1.00
2018-09-13T16:56:43.408Z,1.07
2018-09-13T16:59:12.094Z,0.70
2018-09-13T17:01:40.779Z,0.93
2018-09-13T17:04:09.436Z,0.83
2018-09-13T17:06:38.141Z,0.73
2018-09-13T17:09:09.185Z,0.93
2018-09-13T17:11:37.988Z,1.00
2018-09-13T17:14:06.713Z,1.00
2018-09-13T17:16:35.558Z,0.80
2018-09-13T17:19:04.332Z,0.63
2018-09-13T17:21:33.074Z,1.00
2018-09-13T17:24:01.811Z,0.90
2018-09-13T17:26:30.723Z,0.80
2018-09-13T17:28:59.922Z,0.90
2018-09-13T17:31:28.660Z,0.97
2018-09-13T17:33:57.731Z,0.80
2018-09-13T17:36:26.710Z,0.90
2018-09-13T17:38:55.540Z,1.00
2018-09-13T17:41:24.304Z,0.73
2018-09-13T17:43:53.339Z,1.00
2018-09-13T17:46:22.027Z,0.70
2018-09-13T17:48:50.931Z,1.00
2018-09-13T17:51:19.707Z,1.27
2018-09-13T17:53:48.417Z,0.93
2018-09-13T17:56:17.268Z,0.80
2018-09-13T17:58:46.008Z,0.60
2018-09-13T18:01:14.801Z,1.73
2018-09-13T18:03:43.694Z,1.00
2018-09-13T18:06:12.404Z,1.23
2018-09-13T18:08:41.176Z,1.00
2018-09-13T18:11:10.156Z,0.50
2018-09-13T18:13:39.076Z,0.90
2018-09-13T18:16:07.894Z,0.83
2018-09-13T18:18:36.747Z,0.80
2018-09-13T18:21:05.760Z,1.10
2018-09-13T18:23:34.539Z,0.73
2018-09-13T18:26:03.328Z,0.97
2018-09-13T18:28:32.112Z,1.13
2018-09-13T18:31:00.908Z,0.70
2018-09-13T18:33:29.709Z,0.93
2018-09-13T18:35:58.765Z,0.77
2018-09-13T18:38:27.714Z,1.27
2018-09-13T18:40:56.515Z,1.00
2018-09-13T18:43:25.328Z,1.10
2018-09-13T18:45:54.280Z,1.00
2018-09-13T18:48:22.967Z,1.00
2018-09-13T18:50:51.655Z,0.97
2018-09-13T18:53:20.329Z,1.70
2018-09-13T18:55:49.114Z,1.20
2018-09-13T18:58:17.869Z,0.80
2018-09-13T19:00:46.845Z,1.10
2018-09-13T19:03:15.512Z,0.90
2018-09-13T19:05:44.268Z,1.00
2018-09-13T19:08:13.071Z,1.40
2018-09-13T19:10:41.854Z,1.10
2018-09-13T19:13:10.563Z,1.20
2018-09-13T19:15:39.320Z,0.80
2018-09-13T19:18:08.033Z,0.77
2018-09-13T19:20:36.732Z,0.50
2018-09-13T19:23:05.639Z,0.60
2018-09-13T19:25:34.371Z,0.80
2018-09-13T19:28:03.116Z,0.60
2018-09-13T19:30:31.815Z,0.70
2018-09-13T19:33:00.516Z,0.50
2018-09-13T19:35:29.236Z,1.07
2018-09-13T19:37:57.932Z,0.47
2018-09-13T19:40:26.720Z,0.70
2018-09-13T19:42:55.506Z,0.87
2018-09-13T19:45:24.472Z,0.80
2018-09-13T19:47:53.184Z,0.50
2018-09-13T19:50:21.939Z,0.70
2018-09-13T19:52:50.563Z,1.03
2018-09-13T19:55:19.265Z,0.90
2018-09-13T19:57:47.952Z,1.00
2018-09-13T20:00:16.704Z,0.60
2018-09-13T20:02:45.405Z,1.13
2018-09-13T20:05:14.078Z,1.00
2018-09-13T20:07:42.816Z,1.10
2018-09-13T20:10:11.533Z,1.23
2018-09-13T20:12:40.275Z,0.80
2018-09-13T20:15:08.982Z,1.00
2018-09-13T20:17:37.744Z,1.00
2018-09-13T20:20:06.573Z,0.83
2018-09-13T20:22:35.301Z,0.60
2018-09-13T20:25:04.058Z,0.63
2018-09-13T20:27:32.736Z,0.90
2018-09-13T20:30:01.435Z,1.37
2018-09-13T20:32:30.132Z,0.63
2018-09-13T20:34:58.833Z,0.87
2018-09-13T20:37:27.560Z,0.93
2018-09-13T20:39:56.260Z,1.10
2018-09-13T20:42:24.964Z,0.90
2018-09-13T20:44:53.669Z,1.17
2018-09-13T20:47:22.359Z,0.60
2018-09-13T20:49:51.132Z,0.63
2018-09-13T20:52:19.840Z,1.53
2018-09-13T20:54:48.575Z,0.80
2018-09-13T20:57:17.270Z,1.00
2018-09-13T20:59:45.992Z,0.80
2018-09-13T21:02:14.745Z,0.80
2018-09-13T21:04:43.471Z,1.00
2018-09-13T21:07:12.261Z,0.80
2018-09-13T21:09:40.967Z,1.20
2018-09-13T21:12:09.693Z,1.30
2018-09-13T21:14:38.391Z,0.60
2018-09-13T21:17:07.312Z,1.00
2018-09-13T21:19:36.009Z,0.70
2018-09-13T21:22:04.722Z,0.80
2018-09-13T21:24:33.488Z,1.30
2018-09-13T21:27:02.197Z,0.80
2018-09-13T21:29:30.888Z,0.90
2018-09-13T21:31:59.577Z,0.77
2018-09-13T21:34:28.325Z,1.20
2018-09-13T21:36:57.013Z,0.93
2018-09-13T21:39:25.713Z,1.00
2018-09-13T21:41:54.415Z,1.10
2018-09-13T21:44:23.113Z,1.13
2018-09-13T21:46:51.775Z,1.00
2018-09-13T21:49:20.469Z,1.37
2018-09-13T21:51:49.227Z,1.00
2018-09-13T21:54:17.948Z,1.23
2018-09-13T21:56:46.640Z,1.13
2018-09-13T21:59:15.376Z,1.13
2018-09-13T22:01:44.082Z,1.40
2018-09-13T22:04:12.773Z,1.07
2018-09-13T22:06:41.476Z,1.20
2018-09-13T22:09:10.895Z,1.43
2018-09-13T22:11:40.945Z,1.70
2018-09-13T22:14:09.710Z,1.30
2018-09-13T22:16:38.624Z,1.10
2018-09-13T22:19:07.395Z,1.10
2018-09-13T22:21:36.169Z,1.17
2018-09-13T22:24:05.567Z,1.23
2018-09-13T22:26:35.143Z,0.93
2018-09-13T22:29:04.129Z,1.17
2018-09-13T22:31:33.150Z,1.63
2018-09-13T22:34:02.103Z,1.60
2018-09-13T22:36:30.820Z,1.50
2018-09-13T22:38:59.520Z,1.20
2018-09-13T22:41:28.183Z,1.60
2018-09-13T22:43:56.871Z,1.00
2018-09-13T22:46:25.549Z,1.00
2018-09-13T22:48:54.227Z,1.10
2018-09-13T22:51:22.935Z,1.07
2018-09-13T22:53:51.641Z,0.83
2018-09-13T22:56:20.334Z,1.10
2018-09-13T22:58:49.028Z,0.97
2018-09-13T23:01:17.735Z,1.47
2018-09-13T23:03:46.412Z,0.90
2018-09-13T23:06:15.182Z,0.80
2018-09-13T23:08:43.912Z,1.20
2018-09-13T23:11:12.612Z,1.07
2018-09-13T23:13:41.291Z,0.80
2018-09-13T23:16:10.057Z,0.93
2018-09-13T23:18:38.738Z,1.30
2018-09-13T23:21:07.425Z,0.70
2018-09-13T23:23:36.119Z,1.20
2018-09-13T23:26:04.855Z,0.83
2018-09-13T23:28:33.563Z,0.80
2018-09-13T23:31:02.255Z,1.00
2018-09-13T23:33:30.936Z,0.93
2018-09-13T23:35:59.633Z,1.27
2018-09-13T23:38:28.396Z,1.33
2018-09-13T23:40:57.134Z,1.00
2018-09-13T23:43:25.826Z,1.20
2018-09-13T23:45:54.524Z,1.10
2018-09-13T23:48:23.229Z,1.10
2018-09-13T23:50:51.989Z,1.10
2018-09-13T23:53:21.519Z,1.27
2018-09-13T23:55:50.701Z,0.90
2018-09-13T23:58:19.407Z,1.07
